Terminal Aerodrome Forecast
Issued by NWS Wilmington, NC

Home | Current Version | Previous Version | Text Only | Print | Product List | Glossary On
Versions: 1 2 3 4 5 6 7 8 9 10 11 12 13
000
FTUS42 KILM 201700
TAFFLO
TAF
KFLO 201725Z 2018/2118 05007KT 6SM BR SCT010 OVC025
      TEMPO 2018/2021 5SM -RA BKN010
     FM202100 04006KT 6SM BR BKN008 OVC030
     FM210500 04003KT 4SM BR SCT020 BKN060
     FM211500 03008KT P6SM SCT040 BKN060=

USA.gov is the U.S. government's official web portal to all federal, state and local government web resources and services.